sensor_id;sensor_type;location;lat;lon;timestamp;temperature;humidity
42663;DHT22;44330;51.360;6.686;2023-04-21T00:01:10;7.70;93.00
42663;DHT22;44330;51.360;6.686;2023-04-21T00:03:37;7.80;93.10
42663;DHT22;44330;51.360;6.686;2023-04-21T00:06:04;7.80;93.10
42663;DHT22;44330;51.360;6.686;2023-04-21T00:08:34;7.70;93.00
42663;DHT22;44330;51.360;6.686;2023-04-21T00:11:07;7.70;93.20
42663;DHT22;44330;51.360;6.686;2023-04-21T00:13:33;7.70;93.20
42663;DHT22;44330;51.360;6.686;2023-04-21T00:15:59;7.80;93.10
42663;DHT22;44330;51.360;6.686;2023-04-21T00:18:25;7.70;93.00
42663;DHT22;44330;51.360;6.686;2023-04-21T00:20:52;7.80;93.10
42663;DHT22;44330;51.360;6.686;2023-04-21T00:23:17;7.80;93.10
42663;DHT22;44330;51.360;6.686;2023-04-21T00:25:43;7.70;93.20
42663;DHT22;44330;51.360;6.686;2023-04-21T00:28:08;7.80;93.30
42663;DHT22;44330;51.360;6.686;2023-04-21T00:30:34;7.70;93.30
42663;DHT22;44330;51.360;6.686;2023-04-21T00:32:59;7.70;93.50
42663;DHT22;44330;51.360;6.686;2023-04-21T00:35:25;7.70;93.60
42663;DHT22;44330;51.360;6.686;2023-04-21T00:37:51;7.70;93.70
42663;DHT22;44330;51.360;6.686;2023-04-21T00:40:16;7.70;93.80
42663;DHT22;44330;51.360;6.686;2023-04-21T00:42:42;7.80;93.60
42663;DHT22;44330;51.360;6.686;2023-04-21T00:45:07;7.70;93.60
42663;DHT22;44330;51.360;6.686;2023-04-21T00:47:33;7.80;93.60
42663;DHT22;44330;51.360;6.686;2023-04-21T00:49:59;7.80;93.50
42663;DHT22;44330;51.360;6.686;2023-04-21T00:52:25;7.90;93.60
42663;DHT22;44330;51.360;6.686;2023-04-21T00:54:52;7.90;93.40
42663;DHT22;44330;51.360;6.686;2023-04-21T00:57:18;8.00;93.40
42663;DHT22;44330;51.360;6.686;2023-04-21T00:59:44;8.00;93.30
42663;DHT22;44330;51.360;6.686;2023-04-21T01:02:10;8.00;93.20
42663;DHT22;44330;51.360;6.686;2023-04-21T01:04:36;8.10;93.30
42663;DHT22;44330;51.360;6.686;2023-04-21T01:07:05;8.10;93.40
42663;DHT22;44330;51.360;6.686;2023-04-21T01:09:32;8.20;93.50
42663;DHT22;44330;51.360;6.686;2023-04-21T01:12:05;8.30;93.40
42663;DHT22;44330;51.360;6.686;2023-04-21T01:14:33;8.20;93.30
42663;DHT22;44330;51.360;6.686;2023-04-21T01:16:58;8.20;93.30
42663;DHT22;44330;51.360;6.686;2023-04-21T01:19:27;8.30;93.10
42663;DHT22;44330;51.360;6.686;2023-04-21T01:21:54;8.30;92.90
42663;DHT22;44330;51.360;6.686;2023-04-21T01:24:22;8.30;92.60
42663;DHT22;44330;51.360;6.686;2023-04-21T01:26:49;8.20;92.60
42663;DHT22;44330;51.360;6.686;2023-04-21T01:29:15;8.20;92.70
42663;DHT22;44330;51.360;6.686;2023-04-21T01:31:41;8.30;92.90
42663;DHT22;44330;51.360;6.686;2023-04-21T01:34:07;8.30;92.80
42663;DHT22;44330;51.360;6.686;2023-04-21T01:36:34;8.20;93.00
42663;DHT22;44330;51.360;6.686;2023-04-21T01:39:00;8.20;93.10
42663;DHT22;44330;51.360;6.686;2023-04-21T01:41:26;8.20;93.20
42663;DHT22;44330;51.360;6.686;2023-04-21T01:43:51;8.20;93.30
42663;DHT22;44330;51.360;6.686;2023-04-21T01:46:20;8.20;93.50
42663;DHT22;44330;51.360;6.686;2023-04-21T01:48:46;8.30;93.50
42663;DHT22;44330;51.360;6.686;2023-04-21T01:51:11;8.30;93.40
42663;DHT22;44330;51.360;6.686;2023-04-21T01:53:37;8.40;93.30
42663;DHT22;44330;51.360;6.686;2023-04-21T01:56:03;8.30;93.30
42663;DHT22;44330;51.360;6.686;2023-04-21T01:58:28;8.30;93.30
42663;DHT22;44330;51.360;6.686;2023-04-21T02:00:54;8.30;93.30
42663;DHT22;44330;51.360;6.686;2023-04-21T02:03:19;8.40;93.20
42663;DHT22;44330;51.360;6.686;2023-04-21T02:05:45;8.40;93.10
42663;DHT22;44330;51.360;6.686;2023-04-21T02:08:10;8.40;92.90
42663;DHT22;44330;51.360;6.686;2023-04-21T02:10:36;8.40;92.90
42663;DHT22;44330;51.360;6.686;2023-04-21T02:13:01;8.40;92.80
42663;DHT22;44330;51.360;6.686;2023-04-21T02:15:27;8.40;92.70
42663;DHT22;44330;51.360;6.686;2023-04-21T02:17:52;8.40;92.70
42663;DHT22;44330;51.360;6.686;2023-04-21T02:20:18;8.40;92.60
42663;DHT22;44330;51.360;6.686;2023-04-21T02:22:43;8.40;92.60
42663;DHT22;44330;51.360;6.686;2023-04-21T02:25:09;8.40;92.70
42663;DHT22;44330;51.360;6.686;2023-04-21T02:27:35;8.40;92.90
42663;DHT22;44330;51.360;6.686;2023-04-21T02:30:00;8.40;92.80
42663;DHT22;44330;51.360;6.686;2023-04-21T02:32:26;8.40;92.60
42663;DHT22;44330;51.360;6.686;2023-04-21T02:34:52;8.50;92.60
42663;DHT22;44330;51.360;6.686;2023-04-21T02:37:17;8.40;92.60
42663;DHT22;44330;51.360;6.686;2023-04-21T02:39:43;8.40;92.70
42663;DHT22;44330;51.360;6.686;2023-04-21T02:42:09;8.40;92.90
42663;DHT22;44330;51.360;6.686;2023-04-21T02:44:36;8.40;93.00
42663;DHT22;44330;51.360;6.686;2023-04-21T02:47:02;8.40;93.10
42663;DHT22;44330;51.360;6.686;2023-04-21T02:49:28;8.50;93.00
42663;DHT22;44330;51.360;6.686;2023-04-21T02:51:54;8.50;92.80
42663;DHT22;44330;51.360;6.686;2023-04-21T02:54:19;8.40;92.60
42663;DHT22;44330;51.360;6.686;2023-04-21T02:56:45;8.40;92.70
42663;DHT22;44330;51.360;6.686;2023-04-21T02:59:11;8.40;92.40
42663;DHT22;44330;51.360;6.686;2023-04-21T03:01:40;8.40;92.30
42663;DHT22;44330;51.360;6.686;2023-04-21T03:04:06;8.50;92.40
42663;DHT22;44330;51.360;6.686;2023-04-21T03:06:32;8.40;92.50
42663;DHT22;44330;51.360;6.686;2023-04-21T03:08:58;8.40;92.30
42663;DHT22;44330;51.360;6.686;2023-04-21T03:11:23;8.40;92.00
42663;DHT22;44330;51.360;6.686;2023-04-21T03:13:49;8.40;92.00
42663;DHT22;44330;51.360;6.686;2023-04-21T03:16:14;8.30;92.00
42663;DHT22;44330;51.360;6.686;2023-04-21T03:18:40;8.30;92.10
42663;DHT22;44330;51.360;6.686;2023-04-21T03:21:05;8.30;92.20
42663;DHT22;44330;51.360;6.686;2023-04-21T03:23:31;8.20;92.20
42663;DHT22;44330;51.360;6.686;2023-04-21T03:25:56;8.10;92.40
42663;DHT22;44330;51.360;6.686;2023-04-21T03:28:22;8.10;92.60
42663;DHT22;44330;51.360;6.686;2023-04-21T03:30:48;8.10;92.70
42663;DHT22;44330;51.360;6.686;2023-04-21T03:33:13;8.10;92.60
42663;DHT22;44330;51.360;6.686;2023-04-21T03:35:39;8.10;92.70
42663;DHT22;44330;51.360;6.686;2023-04-21T03:38:04;8.10;92.70
42663;DHT22;44330;51.360;6.686;2023-04-21T03:40:30;8.10;92.80
42663;DHT22;44330;51.360;6.686;2023-04-21T03:42:55;8.10;92.90
42663;DHT22;44330;51.360;6.686;2023-04-21T03:45:21;8.00;92.80
42663;DHT22;44330;51.360;6.686;2023-04-21T03:47:48;8.00;93.00
42663;DHT22;44330;51.360;6.686;2023-04-21T03:50:17;8.00;92.90
42663;DHT22;44330;51.360;6.686;2023-04-21T03:52:42;8.00;93.00
42663;DHT22;44330;51.360;6.686;2023-04-21T03:55:08;8.00;93.10
42663;DHT22;44330;51.360;6.686;2023-04-21T03:57:37;8.00;93.20
42663;DHT22;44330;51.360;6.686;2023-04-21T04:00:03;8.00;93.20
42663;DHT22;44330;51.360;6.686;2023-04-21T04:02:29;7.90;93.20
42663;DHT22;44330;51.360;6.686;2023-04-21T04:04:55;7.90;93.30
42663;DHT22;44330;51.360;6.686;2023-04-21T04:07:20;7.90;93.40
42663;DHT22;44330;51.360;6.686;2023-04-21T04:09:46;7.80;93.50
42663;DHT22;44330;51.360;6.686;2023-04-21T04:12:11;7.80;93.60
42663;DHT22;44330;51.360;6.686;2023-04-21T04:14:37;7.80;93.60
42663;DHT22;44330;51.360;6.686;2023-04-21T04:17:03;7.80;93.70
42663;DHT22;44330;51.360;6.686;2023-04-21T04:19:30;7.80;93.80
42663;DHT22;44330;51.360;6.686;2023-04-21T04:21:59;7.80;93.80
42663;DHT22;44330;51.360;6.686;2023-04-21T04:24:25;7.80;93.90
42663;DHT22;44330;51.360;6.686;2023-04-21T04:26:51;7.70;93.90
42663;DHT22;44330;51.360;6.686;2023-04-21T04:29:18;7.70;94.00
42663;DHT22;44330;51.360;6.686;2023-04-21T04:31:44;7.70;94.10
42663;DHT22;44330;51.360;6.686;2023-04-21T04:34:09;7.70;94.10
42663;DHT22;44330;51.360;6.686;2023-04-21T04:36:35;7.80;94.20
42663;DHT22;44330;51.360;6.686;2023-04-21T04:39:01;7.80;94.10
42663;DHT22;44330;51.360;6.686;2023-04-21T04:41:29;7.80;94.00
42663;DHT22;44330;51.360;6.686;2023-04-21T04:43:54;7.80;93.90
42663;DHT22;44330;51.360;6.686;2023-04-21T04:46:24;7.70;94.00
42663;DHT22;44330;51.360;6.686;2023-04-21T04:48:50;7.80;94.00
42663;DHT22;44330;51.360;6.686;2023-04-21T04:51:15;7.80;94.00
42663;DHT22;44330;51.360;6.686;2023-04-21T04:53:41;7.80;94.10
42663;DHT22;44330;51.360;6.686;2023-04-21T04:56:07;7.70;94.10
42663;DHT22;44330;51.360;6.686;2023-04-21T04:58:32;7.70;94.20
42663;DHT22;44330;51.360;6.686;2023-04-21T05:00:58;7.70;94.30
42663;DHT22;44330;51.360;6.686;2023-04-21T05:03:23;7.70;94.40
42663;DHT22;44330;51.360;6.686;2023-04-21T05:05:49;7.70;94.50
42663;DHT22;44330;51.360;6.686;2023-04-21T05:08:14;7.70;94.60
42663;DHT22;44330;51.360;6.686;2023-04-21T05:10:40;7.70;94.60
42663;DHT22;44330;51.360;6.686;2023-04-21T05:13:05;7.70;94.70
42663;DHT22;44330;51.360;6.686;2023-04-21T05:15:31;7.70;94.80
42663;DHT22;44330;51.360;6.686;2023-04-21T05:17:56;7.70;94.80
42663;DHT22;44330;51.360;6.686;2023-04-21T05:20:23;7.70;94.90
42663;DHT22;44330;51.360;6.686;2023-04-21T05:22:49;7.70;94.90
42663;DHT22;44330;51.360;6.686;2023-04-21T05:25:14;7.70;95.00
42663;DHT22;44330;51.360;6.686;2023-04-21T05:27:40;7.70;95.10
42663;DHT22;44330;51.360;6.686;2023-04-21T05:30:07;7.70;95.10
42663;DHT22;44330;51.360;6.686;2023-04-21T05:32:32;7.70;95.20
42663;DHT22;44330;51.360;6.686;2023-04-21T05:34:58;7.70;95.30
42663;DHT22;44330;51.360;6.686;2023-04-21T05:37:25;7.80;95.40
42663;DHT22;44330;51.360;6.686;2023-04-21T05:39:50;7.80;95.50
42663;DHT22;44330;51.360;6.686;2023-04-21T05:42:16;7.90;95.60
42663;DHT22;44330;51.360;6.686;2023-04-21T05:44:42;7.90;95.60
42663;DHT22;44330;51.360;6.686;2023-04-21T05:47:08;8.00;95.70
42663;DHT22;44330;51.360;6.686;2023-04-21T05:49:34;8.10;95.80
42663;DHT22;44330;51.360;6.686;2023-04-21T05:51:59;8.10;95.80
42663;DHT22;44330;51.360;6.686;2023-04-21T05:54:25;8.20;95.80
42663;DHT22;44330;51.360;6.686;2023-04-21T05:56:50;8.30;95.80
42663;DHT22;44330;51.360;6.686;2023-04-21T05:59:16;8.40;95.80
42663;DHT22;44330;51.360;6.686;2023-04-21T06:01:42;8.40;95.80
42663;DHT22;44330;51.360;6.686;2023-04-21T06:04:08;8.50;95.80
42663;DHT22;44330;51.360;6.686;2023-04-21T06:06:33;8.50;95.80
42663;DHT22;44330;51.360;6.686;2023-04-21T06:08:59;8.50;95.80
42663;DHT22;44330;51.360;6.686;2023-04-21T06:11:25;8.60;95.80
42663;DHT22;44330;51.360;6.686;2023-04-21T06:13:50;8.60;95.70
42663;DHT22;44330;51.360;6.686;2023-04-21T06:16:18;8.60;95.50
42663;DHT22;44330;51.360;6.686;2023-04-21T06:18:44;8.70;95.20
42663;DHT22;44330;51.360;6.686;2023-04-21T06:21:10;8.80;94.90
42663;DHT22;44330;51.360;6.686;2023-04-21T06:23:35;8.80;94.70
42663;DHT22;44330;51.360;6.686;2023-04-21T06:26:05;8.80;94.60
42663;DHT22;44330;51.360;6.686;2023-04-21T06:28:32;8.90;94.60
42663;DHT22;44330;51.360;6.686;2023-04-21T06:30:59;8.90;94.60
42663;DHT22;44330;51.360;6.686;2023-04-21T06:33:25;9.00;94.40
42663;DHT22;44330;51.360;6.686;2023-04-21T06:35:51;9.00;94.40
42663;DHT22;44330;51.360;6.686;2023-04-21T06:38:17;9.10;94.40
42663;DHT22;44330;51.360;6.686;2023-04-21T06:40:43;9.20;94.40
42663;DHT22;44330;51.360;6.686;2023-04-21T06:43:09;9.20;94.30
42663;DHT22;44330;51.360;6.686;2023-04-21T06:45:34;9.30;94.20
42663;DHT22;44330;51.360;6.686;2023-04-21T06:48:00;9.30;94.10
42663;DHT22;44330;51.360;6.686;2023-04-21T06:50:25;9.40;94.10
42663;DHT22;44330;51.360;6.686;2023-04-21T06:52:51;9.50;93.20
42663;DHT22;44330;51.360;6.686;2023-04-21T06:55:16;9.50;93.20
42663;DHT22;44330;51.360;6.686;2023-04-21T06:57:42;9.60;93.00
42663;DHT22;44330;51.360;6.686;2023-04-21T07:00:08;9.70;93.00
42663;DHT22;44330;51.360;6.686;2023-04-21T07:02:34;9.80;92.70
42663;DHT22;44330;51.360;6.686;2023-04-21T07:04:59;9.90;92.70
42663;DHT22;44330;51.360;6.686;2023-04-21T07:07:25;10.00;92.70
42663;DHT22;44330;51.360;6.686;2023-04-21T07:09:51;10.10;92.10
42663;DHT22;44330;51.360;6.686;2023-04-21T07:12:16;10.20;91.40
42663;DHT22;44330;51.360;6.686;2023-04-21T07:14:42;10.30;90.40
42663;DHT22;44330;51.360;6.686;2023-04-21T07:17:07;10.30;90.10
42663;DHT22;44330;51.360;6.686;2023-04-21T07:19:33;10.40;90.20
42663;DHT22;44330;51.360;6.686;2023-04-21T07:21:58;10.50;89.50
42663;DHT22;44330;51.360;6.686;2023-04-21T07:24:24;10.60;88.00
42663;DHT22;44330;51.360;6.686;2023-04-21T07:26:49;10.60;87.30
42663;DHT22;44330;51.360;6.686;2023-04-21T07:29:15;10.70;86.90
42663;DHT22;44330;51.360;6.686;2023-04-21T07:31:40;10.90;85.40
42663;DHT22;44330;51.360;6.686;2023-04-21T07:34:06;11.00;81.40
42663;DHT22;44330;51.360;6.686;2023-04-21T07:36:31;11.10;82.50
42663;DHT22;44330;51.360;6.686;2023-04-21T07:38:57;11.20;80.90
42663;DHT22;44330;51.360;6.686;2023-04-21T07:41:23;11.30;81.00
42663;DHT22;44330;51.360;6.686;2023-04-21T07:43:48;11.40;77.80
42663;DHT22;44330;51.360;6.686;2023-04-21T07:46:14;11.40;79.40
42663;DHT22;44330;51.360;6.686;2023-04-21T07:48:39;11.50;79.40
42663;DHT22;44330;51.360;6.686;2023-04-21T07:51:05;11.60;81.40
42663;DHT22;44330;51.360;6.686;2023-04-21T07:53:31;11.60;79.00
42663;DHT22;44330;51.360;6.686;2023-04-21T07:55:57;11.60;75.90
42663;DHT22;44330;51.360;6.686;2023-04-21T07:58:22;11.70;75.00
42663;DHT22;44330;51.360;6.686;2023-04-21T08:00:48;11.70;73.50
42663;DHT22;44330;51.360;6.686;2023-04-21T08:03:14;11.80;74.00
42663;DHT22;44330;51.360;6.686;2023-04-21T08:05:40;11.90;74.20
42663;DHT22;44330;51.360;6.686;2023-04-21T08:08:05;12.00;73.90
42663;DHT22;44330;51.360;6.686;2023-04-21T08:10:31;12.10;71.00
42663;DHT22;44330;51.360;6.686;2023-04-21T08:12:57;12.10;68.40
42663;DHT22;44330;51.360;6.686;2023-04-21T08:15:23;12.20;68.50
42663;DHT22;44330;51.360;6.686;2023-04-21T08:17:49;12.30;66.90
42663;DHT22;44330;51.360;6.686;2023-04-21T08:20:14;12.40;68.70
42663;DHT22;44330;51.360;6.686;2023-04-21T08:22:40;12.50;63.90
42663;DHT22;44330;51.360;6.686;2023-04-21T08:25:06;12.70;60.90
42663;DHT22;44330;51.360;6.686;2023-04-21T08:27:31;12.80;49.70
42663;DHT22;44330;51.360;6.686;2023-04-21T08:29:57;12.90;55.80
42663;DHT22;44330;51.360;6.686;2023-04-21T08:32:23;13.00;56.20
42663;DHT22;44330;51.360;6.686;2023-04-21T08:34:53;13.00;57.70
42663;DHT22;44330;51.360;6.686;2023-04-21T08:37:19;13.10;51.70
42663;DHT22;44330;51.360;6.686;2023-04-21T08:39:45;13.10;50.50
42663;DHT22;44330;51.360;6.686;2023-04-21T08:42:18;13.20;47.30
42663;DHT22;44330;51.360;6.686;2023-04-21T08:44:44;13.20;47.80
42663;DHT22;44330;51.360;6.686;2023-04-21T08:47:10;13.20;47.90
42663;DHT22;44330;51.360;6.686;2023-04-21T08:49:37;13.20;50.20
42663;DHT22;44330;51.360;6.686;2023-04-21T08:52:04;13.30;54.20
42663;DHT22;44330;51.360;6.686;2023-04-21T08:54:30;13.30;53.70
42663;DHT22;44330;51.360;6.686;2023-04-21T08:56:56;13.50;58.50
42663;DHT22;44330;51.360;6.686;2023-04-21T08:59:21;13.60;59.80
42663;DHT22;44330;51.360;6.686;2023-04-21T09:04:31;13.60;45.60
42663;DHT22;44330;51.360;6.686;2023-04-21T09:06:56;13.60;50.80
42663;DHT22;44330;51.360;6.686;2023-04-21T09:09:22;13.70;46.70
42663;DHT22;44330;51.360;6.686;2023-04-21T09:11:55;13.80;48.80
42663;DHT22;44330;51.360;6.686;2023-04-21T09:14:21;13.90;45.60
42663;DHT22;44330;51.360;6.686;2023-04-21T09:17:01;14.00;35.90
42663;DHT22;44330;51.360;6.686;2023-04-21T09:19:32;14.00;26.20
42663;DHT22;44330;51.360;6.686;2023-04-21T09:22:00;14.00;37.70
42663;DHT22;44330;51.360;6.686;2023-04-21T09:24:25;14.00;27.00
42663;DHT22;44330;51.360;6.686;2023-04-21T09:26:51;14.00;29.00
42663;DHT22;44330;51.360;6.686;2023-04-21T09:29:21;13.80;25.10
42663;DHT22;44330;51.360;6.686;2023-04-21T09:31:46;13.80;41.20
42663;DHT22;44330;51.360;6.686;2023-04-21T09:34:20;13.60;30.10
42663;DHT22;44330;51.360;6.686;2023-04-21T09:36:46;13.60;38.70
42663;DHT22;44330;51.360;6.686;2023-04-21T09:39:12;13.70;37.80
42663;DHT22;44330;51.360;6.686;2023-04-21T09:41:38;13.70;41.80
42663;DHT22;44330;51.360;6.686;2023-04-21T09:44:04;13.80;40.70
42663;DHT22;44330;51.360;6.686;2023-04-21T09:46:35;13.90;31.00
42663;DHT22;44330;51.360;6.686;2023-04-21T09:49:01;14.00;39.30
42663;DHT22;44330;51.360;6.686;2023-04-21T09:51:28;14.10;31.40
42663;DHT22;44330;51.360;6.686;2023-04-21T09:53:58;14.00;31.40
42663;DHT22;44330;51.360;6.686;2023-04-21T09:56:25;14.10;24.70
42663;DHT22;44330;51.360;6.686;2023-04-21T09:58:54;14.20;27.10
42663;DHT22;44330;51.360;6.686;2023-04-21T10:01:23;14.30;31.10
42663;DHT22;44330;51.360;6.686;2023-04-21T10:03:51;14.40;27.60
42663;DHT22;44330;51.360;6.686;2023-04-21T10:06:18;14.50;13.60
42663;DHT22;44330;51.360;6.686;2023-04-21T10:08:44;14.50;25.40
42663;DHT22;44330;51.360;6.686;2023-04-21T10:11:11;14.50;30.10
42663;DHT22;44330;51.360;6.686;2023-04-21T10:13:37;14.40;15.40
42663;DHT22;44330;51.360;6.686;2023-04-21T10:16:16;14.50;22.70
42663;DHT22;44330;51.360;6.686;2023-04-21T10:18:43;14.50;12.60
42663;DHT22;44330;51.360;6.686;2023-04-21T10:21:11;14.60;12.50
42663;DHT22;44330;51.360;6.686;2023-04-21T10:23:44;14.90;17.20
42663;DHT22;44330;51.360;6.686;2023-04-21T10:26:19;15.30;2.50
42663;DHT22;44330;51.360;6.686;2023-04-21T10:31:33;15.50;1.00
42663;DHT22;44330;51.360;6.686;2023-04-21T10:39:33;15.60;1.00
42663;DHT22;44330;51.360;6.686;2023-04-21T10:44:44;15.70;1.00
42663;DHT22;44330;51.360;6.686;2023-04-21T10:49:49;15.90;1.00
42663;DHT22;44330;51.360;6.686;2023-04-21T10:52:15;15.90;99.90
42663;DHT22;44330;51.360;6.686;2023-04-21T10:57:14;15.60;1.00
42663;DHT22;44330;51.360;6.686;2023-04-21T10:59:40;15.90;1.00
42663;DHT22;44330;51.360;6.686;2023-04-21T11:02:10;16.40;1.00
42663;DHT22;44330;51.360;6.686;2023-04-21T11:04:35;16.70;99.90
42663;DHT22;44330;51.360;6.686;2023-04-21T11:09:35;16.70;99.90
42663;DHT22;44330;51.360;6.686;2023-04-21T11:12:07;17.10;50.80
42663;DHT22;44330;51.360;6.686;2023-04-21T11:14:34;17.40;99.90
42663;DHT22;44330;51.360;6.686;2023-04-21T11:17:00;17.50;99.90
42663;DHT22;44330;51.360;6.686;2023-04-21T11:19:26;17.60;99.90
42663;DHT22;44330;51.360;6.686;2023-04-21T11:21:55;17.70;99.90
42663;DHT22;44330;51.360;6.686;2023-04-21T11:24:21;17.70;23.80
42663;DHT22;44330;51.360;6.686;2023-04-21T11:26:46;18.00;1.00
42663;DHT22;44330;51.360;6.686;2023-04-21T11:29:12;18.00;99.90
42663;DHT22;44330;51.360;6.686;2023-04-21T11:31:40;17.90;99.90
42663;DHT22;44330;51.360;6.686;2023-04-21T11:34:06;18.00;99.90
42663;DHT22;44330;51.360;6.686;2023-04-21T11:36:39;18.00;99.90
42663;DHT22;44330;51.360;6.686;2023-04-21T11:39:09;17.80;99.90
42663;DHT22;44330;51.360;6.686;2023-04-21T11:41:39;17.60;99.90
42663;DHT22;44330;51.360;6.686;2023-04-21T11:44:09;17.50;99.90
42663;DHT22;44330;51.360;6.686;2023-04-21T11:46:35;17.60;99.90
42663;DHT22;44330;51.360;6.686;2023-04-21T11:49:13;17.40;99.90
42663;DHT22;44330;51.360;6.686;2023-04-21T11:51:41;17.60;99.90
42663;DHT22;44330;51.360;6.686;2023-04-21T11:54:11;18.00;99.90
42663;DHT22;44330;51.360;6.686;2023-04-21T11:56:38;18.20;99.90
42663;DHT22;44330;51.360;6.686;2023-04-21T11:59:08;18.10;99.90
42663;DHT22;44330;51.360;6.686;2023-04-21T12:01:48;18.20;97.20
42663;DHT22;44330;51.360;6.686;2023-04-21T12:04:20;18.30;97.00
42663;DHT22;44330;51.360;6.686;2023-04-21T12:06:54;18.20;38.30
42663;DHT22;44330;51.360;6.686;2023-04-21T12:09:20;18.20;1.00
42663;DHT22;44330;51.360;6.686;2023-04-21T12:11:47;17.90;1.00
42663;DHT22;44330;51.360;6.686;2023-04-21T12:14:15;17.80;58.30
42663;DHT22;44330;51.360;6.686;2023-04-21T12:16:41;17.70;74.40
42663;DHT22;44330;51.360;6.686;2023-04-21T12:19:07;17.70;4.80
42663;DHT22;44330;51.360;6.686;2023-04-21T12:21:35;17.30;61.10
42663;DHT22;44330;51.360;6.686;2023-04-21T12:24:01;17.50;99.90
42663;DHT22;44330;51.360;6.686;2023-04-21T12:26:26;17.70;62.60
42663;DHT22;44330;51.360;6.686;2023-04-21T12:28:53;18.00;93.40
42663;DHT22;44330;51.360;6.686;2023-04-21T12:31:18;18.10;98.10
42663;DHT22;44330;51.360;6.686;2023-04-21T12:33:44;18.40;8.10
42663;DHT22;44330;51.360;6.686;2023-04-21T12:36:10;18.50;1.00
42663;DHT22;44330;51.360;6.686;2023-04-21T12:38:35;18.60;1.00
42663;DHT22;44330;51.360;6.686;2023-04-21T12:41:01;18.60;1.00
42663;DHT22;44330;51.360;6.686;2023-04-21T12:43:26;18.80;99.90
42663;DHT22;44330;51.360;6.686;2023-04-21T12:45:52;18.80;99.90
42663;DHT22;44330;51.360;6.686;2023-04-21T12:48:18;18.60;99.90
42663;DHT22;44330;51.360;6.686;2023-04-21T12:50:46;18.70;99.90
42663;DHT22;44330;51.360;6.686;2023-04-21T12:53:12;18.90;99.90
42663;DHT22;44330;51.360;6.686;2023-04-21T12:55:38;18.90;99.90
42663;DHT22;44330;51.360;6.686;2023-04-21T12:58:04;18.80;99.90
42663;DHT22;44330;51.360;6.686;2023-04-21T13:00:29;18.80;99.90
42663;DHT22;44330;51.360;6.686;2023-04-21T13:02:56;18.90;99.90
42663;DHT22;44330;51.360;6.686;2023-04-21T13:05:21;19.00;99.90
42663;DHT22;44330;51.360;6.686;2023-04-21T13:07:47;19.20;99.90
42663;DHT22;44330;51.360;6.686;2023-04-21T13:10:13;19.50;99.90
42663;DHT22;44330;51.360;6.686;2023-04-21T13:12:38;19.70;96.00
42663;DHT22;44330;51.360;6.686;2023-04-21T13:15:06;19.70;65.50
42663;DHT22;44330;51.360;6.686;2023-04-21T13:17:32;19.80;15.60
42663;DHT22;44330;51.360;6.686;2023-04-21T13:19:57;19.90;1.00
42663;DHT22;44330;51.360;6.686;2023-04-21T13:22:23;19.80;1.00
42663;DHT22;44330;51.360;6.686;2023-04-21T13:24:48;19.80;1.00
42663;DHT22;44330;51.360;6.686;2023-04-21T13:27:14;19.50;1.00
42663;DHT22;44330;51.360;6.686;2023-04-21T13:29:39;19.40;1.00
42663;DHT22;44330;51.360;6.686;2023-04-21T13:32:06;19.20;1.00
42663;DHT22;44330;51.360;6.686;2023-04-21T13:34:32;19.10;1.00
42663;DHT22;44330;51.360;6.686;2023-04-21T13:36:59;19.20;1.00
42663;DHT22;44330;51.360;6.686;2023-04-21T13:39:25;19.50;1.00
42663;DHT22;44330;51.360;6.686;2023-04-21T13:41:51;19.80;99.90
42663;DHT22;44330;51.360;6.686;2023-04-21T13:44:17;19.90;99.90
42663;DHT22;44330;51.360;6.686;2023-04-21T13:46:43;20.10;99.90
42663;DHT22;44330;51.360;6.686;2023-04-21T13:49:09;20.20;99.90
42663;DHT22;44330;51.360;6.686;2023-04-21T13:51:35;20.20;99.90
42663;DHT22;44330;51.360;6.686;2023-04-21T13:54:00;20.30;99.90
42663;DHT22;44330;51.360;6.686;2023-04-21T13:56:26;20.40;99.90
42663;DHT22;44330;51.360;6.686;2023-04-21T13:58:51;20.60;99.90
42663;DHT22;44330;51.360;6.686;2023-04-21T14:01:17;20.70;99.90
42663;DHT22;44330;51.360;6.686;2023-04-21T14:03:42;20.80;99.90
42663;DHT22;44330;51.360;6.686;2023-04-21T14:06:08;20.40;99.90
42663;DHT22;44330;51.360;6.686;2023-04-21T14:08:34;20.30;99.90
42663;DHT22;44330;51.360;6.686;2023-04-21T14:10:59;20.10;99.90
42663;DHT22;44330;51.360;6.686;2023-04-21T14:13:25;20.20;99.90
42663;DHT22;44330;51.360;6.686;2023-04-21T14:15:55;20.40;99.90
42663;DHT22;44330;51.360;6.686;2023-04-21T14:18:21;20.50;99.90
42663;DHT22;44330;51.360;6.686;2023-04-21T14:20:48;20.10;99.90
42663;DHT22;44330;51.360;6.686;2023-04-21T14:23:14;19.80;99.90
42663;DHT22;44330;51.360;6.686;2023-04-21T14:25:40;19.60;99.90
42663;DHT22;44330;51.360;6.686;2023-04-21T14:28:06;19.50;99.90
42663;DHT22;44330;51.360;6.686;2023-04-21T14:30:35;19.50;99.90
42663;DHT22;44330;51.360;6.686;2023-04-21T14:33:01;19.70;99.90
42663;DHT22;44330;51.360;6.686;2023-04-21T14:35:28;19.80;99.90
42663;DHT22;44330;51.360;6.686;2023-04-21T14:37:53;20.10;99.90
42663;DHT22;44330;51.360;6.686;2023-04-21T14:40:19;20.20;99.90
42663;DHT22;44330;51.360;6.686;2023-04-21T14:42:44;20.40;99.90
42663;DHT22;44330;51.360;6.686;2023-04-21T14:45:11;20.50;99.90
42663;DHT22;44330;51.360;6.686;2023-04-21T14:47:37;20.70;99.90
42663;DHT22;44330;51.360;6.686;2023-04-21T14:50:03;20.80;99.90
42663;DHT22;44330;51.360;6.686;2023-04-21T14:52:30;20.60;99.90
42663;DHT22;44330;51.360;6.686;2023-04-21T14:54:55;20.50;99.90
42663;DHT22;44330;51.360;6.686;2023-04-21T14:57:21;20.40;99.90
42663;DHT22;44330;51.360;6.686;2023-04-21T14:59:51;20.20;99.90
42663;DHT22;44330;51.360;6.686;2023-04-21T15:02:18;20.00;99.90
42663;DHT22;44330;51.360;6.686;2023-04-21T15:04:44;19.80;99.90
42663;DHT22;44330;51.360;6.686;2023-04-21T15:07:09;19.80;99.90
42663;DHT22;44330;51.360;6.686;2023-04-21T15:09:35;19.70;99.90
42663;DHT22;44330;51.360;6.686;2023-04-21T15:12:01;19.50;99.90
42663;DHT22;44330;51.360;6.686;2023-04-21T15:14:26;19.40;99.90
42663;DHT22;44330;51.360;6.686;2023-04-21T15:16:52;19.60;99.90
42663;DHT22;44330;51.360;6.686;2023-04-21T15:19:17;19.80;99.90
42663;DHT22;44330;51.360;6.686;2023-04-21T15:21:43;20.10;99.90
42663;DHT22;44330;51.360;6.686;2023-04-21T15:24:08;20.40;99.90
42663;DHT22;44330;51.360;6.686;2023-04-21T15:26:34;20.70;99.90
42663;DHT22;44330;51.360;6.686;2023-04-21T15:29:00;20.90;93.60
42663;DHT22;44330;51.360;6.686;2023-04-21T15:31:25;20.90;82.10
42663;DHT22;44330;51.360;6.686;2023-04-21T15:33:51;21.10;96.20
42663;DHT22;44330;51.360;6.686;2023-04-21T15:36:17;21.20;93.90
42663;DHT22;44330;51.360;6.686;2023-04-21T15:38:42;21.40;79.70
42663;DHT22;44330;51.360;6.686;2023-04-21T15:41:09;21.40;61.00
42663;DHT22;44330;51.360;6.686;2023-04-21T15:43:34;21.40;54.00
42663;DHT22;44330;51.360;6.686;2023-04-21T15:46:00;21.40;28.60
42663;DHT22;44330;51.360;6.686;2023-04-21T15:48:26;21.20;47.80
42663;DHT22;44330;51.360;6.686;2023-04-21T15:50:51;21.20;57.10
42663;DHT22;44330;51.360;6.686;2023-04-21T15:53:17;21.00;34.90
42663;DHT22;44330;51.360;6.686;2023-04-21T15:55:43;21.00;32.90